createdAt,value
2019-05-01T00:02:28.254Z,24.80
2019-05-01T00:05:09.619Z,24.80
2019-05-01T00:07:41.836Z,24.60
2019-05-01T00:10:15.353Z,25.00
2019-05-01T00:12:48.092Z,23.40
2019-05-01T00:15:21.488Z,23.83
2019-05-01T00:17:55.847Z,26.13
2019-05-01T00:20:26.174Z,24.47
2019-05-01T00:25:46.467Z,23.97
2019-05-01T00:28:22.528Z,23.87
2019-05-01T00:30:53.003Z,22.93
2019-05-01T00:33:27.896Z,23.70
2019-05-01T00:36:03.924Z,26.17
2019-05-01T00:38:36.747Z,25.97
2019-05-01T00:41:11.006Z,26.10
2019-05-01T00:43:44.227Z,27.03
2019-05-01T00:46:15.064Z,26.47
2019-05-01T00:48:48.258Z,21.70
2019-05-01T00:51:22.586Z,22.43
2019-05-01T00:53:53.016Z,23.40
2019-05-01T00:56:25.713Z,22.30
2019-05-01T00:59:03.849Z,22.93
2019-05-01T01:01:46.933Z,22.80
2019-05-01T01:04:19.911Z,23.73
2019-05-01T01:06:55.207Z,24.27
2019-05-01T01:09:29.911Z,23.17
2019-05-01T01:12:04.479Z,21.47
2019-05-01T01:14:45.138Z,22.00
2019-05-01T01:17:15.210Z,21.90
2019-05-01T01:19:48.372Z,21.90
2019-05-01T01:22:21.700Z,22.30
2019-05-01T01:24:52.710Z,22.53
2019-05-01T01:27:26.334Z,23.00
2019-05-01T01:30:08.297Z,21.40
2019-05-01T01:32:34.070Z,23.20
2019-05-01T01:35:07.279Z,23.43
2019-05-01T01:37:38.008Z,22.60
2019-05-01T01:40:13.787Z,22.23
2019-05-01T01:42:47.763Z,21.63
2019-05-01T01:45:21.096Z,21.83
2019-05-01T01:48:14.255Z,22.30
2019-05-01T01:50:47.225Z,24.73
2019-05-01T01:53:26.681Z,24.00
2019-05-01T01:55:54.773Z,23.77
2019-05-01T01:58:27.818Z,23.67
2019-05-01T02:01:09.221Z,23.57
2019-05-01T02:03:42.185Z,22.23
2019-05-01T02:06:15.523Z,22.10
2019-05-01T02:08:55.924Z,21.33
2019-05-01T02:11:20.531Z,23.13
2019-05-01T02:13:53.728Z,21.90
2019-05-01T02:16:32.504Z,22.77
2019-05-01T02:19:14.425Z,21.90
2019-05-01T02:21:45.816Z,22.00
2019-05-01T02:24:19.630Z,22.37
2019-05-01T02:26:52.615Z,24.43
2019-05-01T02:29:30.690Z,23.47
2019-05-01T02:32:09.149Z,22.53
2019-05-01T02:34:42.277Z,23.03
2019-05-01T02:37:21.063Z,23.10
2019-05-01T02:39:52.237Z,23.27
2019-05-01T02:42:25.706Z,22.90
2019-05-01T02:45:01.357Z,23.63
2019-05-01T02:47:42.246Z,21.97
2019-05-01T02:50:19.910Z,22.43
2019-05-01T02:52:55.005Z,22.53
2019-05-01T02:55:34.399Z,21.13
2019-05-01T02:58:03.134Z,21.10
2019-05-01T03:00:35.417Z,21.57
2019-05-01T03:03:06.682Z,22.57
2019-05-01T03:05:39.293Z,21.77
2019-05-01T03:08:16.455Z,22.47
2019-05-01T03:10:51.637Z,21.83
2019-05-01T03:13:25.589Z,23.00
2019-05-01T03:16:01.642Z,22.20
2019-05-01T03:18:39.863Z,21.83
2019-05-01T03:21:12.449Z,21.90
2019-05-01T03:23:46.210Z,21.50
2019-05-01T03:26:18.193Z,22.47
2019-05-01T03:28:57.718Z,22.33
2019-05-01T03:31:32.319Z,22.93
2019-05-01T03:34:10.520Z,22.30
2019-05-01T03:36:45.722Z,21.77
2019-05-01T03:39:17.831Z,21.97
2019-05-01T03:42:07.067Z,22.77
2019-05-01T03:44:40.481Z,21.53
2019-05-01T03:47:15.317Z,22.40
2019-05-01T03:49:49.102Z,22.63
2019-05-01T03:52:21.340Z,22.60
2019-05-01T03:54:57.662Z,22.33
2019-05-01T03:57:30.238Z,22.50
2019-05-01T04:00:04.571Z,23.57
2019-05-01T04:02:41.553Z,22.13
2019-05-01T04:05:12.748Z,23.93
2019-05-01T04:07:46.566Z,21.53
2019-05-01T04:10:16.838Z,22.30
2019-05-01T04:12:48.484Z,23.07
2019-05-01T04:15:22.523Z,23.13
2019-05-01T04:17:57.690Z,23.07
2019-05-01T04:20:33.351Z,22.50
2019-05-01T04:23:04.481Z,22.33
2019-05-01T04:25:36.697Z,22.63
2019-05-01T04:28:28.761Z,23.63
2019-05-01T04:31:17.458Z,23.40
2019-05-01T04:33:50.814Z,21.60
2019-05-01T04:36:28.287Z,23.73
2019-05-01T04:39:02.953Z,22.53
2019-05-01T04:41:39.895Z,22.43
2019-05-01T04:44:17.958Z,22.63
2019-05-01T04:46:49.185Z,22.93
2019-05-01T04:49:28.173Z,22.57
2019-05-01T04:52:00.644Z,23.50
2019-05-01T04:54:34.422Z,25.00
2019-05-01T04:57:05.278Z,24.37
2019-05-01T04:59:36.615Z,25.30
2019-05-01T05:02:16.090Z,24.43
2019-05-01T05:04:44.501Z,23.33
2019-05-01T05:07:23.838Z,23.67
2019-05-01T05:09:56.712Z,24.30
2019-05-01T05:12:48.053Z,24.83
2019-05-01T05:15:36.209Z,24.53
2019-05-01T05:18:12.924Z,23.97
2019-05-01T05:20:46.914Z,24.67
2019-05-01T05:23:19.801Z,25.23
2019-05-01T05:25:53.558Z,24.50
2019-05-01T05:28:26.499Z,23.90
2019-05-01T05:31:02.151Z,23.60
2019-05-01T05:33:35.478Z,24.00
2019-05-01T05:36:08.429Z,24.77
2019-05-01T05:38:50.227Z,24.80
2019-05-01T05:41:25.586Z,23.37
2019-05-01T05:44:06.149Z,23.77
2019-05-01T05:46:38.285Z,23.77
2019-05-01T05:49:12.106Z,24.70
2019-05-01T05:51:52.588Z,24.20
2019-05-01T05:54:33.539Z,24.10
2019-05-01T05:57:15.435Z,23.57
2019-05-01T05:59:56.516Z,23.63
2019-05-01T06:02:47.282Z,23.17
2019-05-01T06:05:42.171Z,24.53
2019-05-01T06:08:22.757Z,23.80
2019-05-01T06:11:10.591Z,24.43
2019-05-01T06:14:02.905Z,25.00
2019-05-01T06:16:41.989Z,24.00
2019-05-01T06:19:32.757Z,23.87
2019-05-01T06:22:10.182Z,25.80
2019-05-01T06:25:02.319Z,24.90
2019-05-01T06:27:36.429Z,25.77
2019-05-01T06:30:11.144Z,27.10
2019-05-01T06:32:50.973Z,28.67
2019-05-01T06:35:23.858Z,28.73
2019-05-01T06:38:10.803Z,29.07
2019-05-01T06:40:42.333Z,30.07
2019-05-01T06:43:20.210Z,31.10
2019-05-01T06:46:07.227Z,34.43
2019-05-01T06:48:37.901Z,33.90
2019-05-01T06:51:13.026Z,34.70
2019-05-01T06:53:44.592Z,34.70
2019-05-01T06:56:16.208Z,36.17
2019-05-01T06:58:51.021Z,33.87
2019-05-01T07:01:23.685Z,35.97
2019-05-01T07:04:03.659Z,34.93
2019-05-01T07:06:25.915Z,35.20
2019-05-01T07:08:58.720Z,34.90
2019-05-01T07:11:32.006Z,32.43
2019-05-01T07:14:05.242Z,33.70
2019-05-01T07:16:38.107Z,31.63
2019-05-01T07:19:19.498Z,33.20
2019-05-01T07:21:51.559Z,35.47
2019-05-01T07:24:32.909Z,34.57
2019-05-01T07:27:11.783Z,36.70
2019-05-01T07:29:46.693Z,34.80
2019-05-01T07:32:19.677Z,35.70
2019-05-01T07:34:56.884Z,34.07
2019-05-01T07:37:27.751Z,34.90
2019-05-01T07:40:03.526Z,34.13
2019-05-01T07:42:43.760Z,34.27
2019-05-01T07:45:20.649Z,35.53
2019-05-01T07:48:00.994Z,36.57
2019-05-01T07:50:33.615Z,36.67
2019-05-01T07:53:09.597Z,37.43
2019-05-01T07:55:41.128Z,36.50
2019-05-01T07:58:20.930Z,36.70
2019-05-01T08:01:04.976Z,34.83
2019-05-01T08:03:38.186Z,35.43
2019-05-01T08:06:06.468Z,35.93
2019-05-01T08:08:43.568Z,35.80
2019-05-01T08:11:15.499Z,35.40
2019-05-01T08:14:07.107Z,34.57
2019-05-01T08:16:25.961Z,37.17
2019-05-01T08:19:08.536Z,37.00
2019-05-01T08:21:43.977Z,36.40
2019-05-01T08:24:24.664Z,37.33
2019-05-01T08:26:52.568Z,39.70
2019-05-01T08:29:44.098Z,39.70
2019-05-01T08:32:33.768Z,39.23
2019-05-01T08:35:08.546Z,40.17
2019-05-01T08:37:46.843Z,38.53
2019-05-01T08:40:20.557Z,37.07
2019-05-01T08:42:59.063Z,38.77
2019-05-01T08:45:46.276Z,39.77
2019-05-01T08:48:35.743Z,38.87
2019-05-01T08:51:05.220Z,37.67
2019-05-01T08:53:38.553Z,37.77
2019-05-01T08:56:16.989Z,38.60
2019-05-01T08:58:51.694Z,37.30
2019-05-01T09:01:22.991Z,40.13
2019-05-01T09:03:54.173Z,39.83
2019-05-01T09:06:39.286Z,40.83
2019-05-01T09:09:14.013Z,37.23
2019-05-01T09:11:50.058Z,42.00
2019-05-01T09:14:24.455Z,40.90
2019-05-01T09:17:00.833Z,40.43
2019-05-01T09:19:38.555Z,37.97
2019-05-01T09:22:13.469Z,39.23
2019-05-01T09:24:45.432Z,40.10
2019-05-01T09:27:29.198Z,42.40
2019-05-01T09:30:04.559Z,43.07
2019-05-01T09:32:37.119Z,44.17
2019-05-01T09:35:16.133Z,42.93
2019-05-01T09:37:51.619Z,43.80
2019-05-01T09:40:30.427Z,43.73
2019-05-01T09:43:00.945Z,43.23
2019-05-01T09:45:33.168Z,43.47
2019-05-01T09:48:08.841Z,42.20
2019-05-01T09:51:00.974Z,44.13
2019-05-01T09:53:35.449Z,39.20
2019-05-01T09:56:09.943Z,40.27
2019-05-01T09:58:41.301Z,41.73
2019-05-01T10:01:16.015Z,41.47
2019-05-01T10:03:54.679Z,42.43
2019-05-01T10:06:22.522Z,40.57
2019-05-01T10:09:01.177Z,44.00
2019-05-01T10:11:36.007Z,44.77
2019-05-01T10:14:18.559Z,43.17
2019-05-01T10:16:48.765Z,43.73
2019-05-01T10:19:20.484Z,41.60
2019-05-01T10:21:50.605Z,42.53
2019-05-01T10:24:37.588Z,42.00
2019-05-01T10:27:08.385Z,41.23
2019-05-01T10:29:49.239Z,40.10
2019-05-01T10:32:25.891Z,41.90
2019-05-01T10:35:03.482Z,40.30
2019-05-01T10:37:35.700Z,41.67
2019-05-01T10:40:08.822Z,42.60
2019-05-01T10:42:41.756Z,43.53
2019-05-01T10:45:12.926Z,44.20
2019-05-01T10:47:45.564Z,41.47
2019-05-01T10:50:17.114Z,47.33
2019-05-01T10:52:52.445Z,47.20
2019-05-01T10:55:22.229Z,45.53
2019-05-01T10:57:55.320Z,43.50
2019-05-01T11:00:28.243Z,45.27
2019-05-01T11:03:03.907Z,44.50
2019-05-01T11:05:37.265Z,45.63
2019-05-01T11:08:18.162Z,46.87
2019-05-01T11:10:50.183Z,41.30
2019-05-01T11:13:20.948Z,44.50
2019-05-01T11:16:01.552Z,39.40
2019-05-01T11:18:39.291Z,42.67
2019-05-01T11:21:10.519Z,42.97
2019-05-01T11:23:41.533Z,41.90
2019-05-01T11:26:15.129Z,42.70
2019-05-01T11:28:44.421Z,44.37
2019-05-01T11:31:17.939Z,41.83
2019-05-01T11:33:54.298Z,40.53
2019-05-01T11:36:39.113Z,43.07
2019-05-01T11:39:35.951Z,41.47
2019-05-01T11:42:10.484Z,42.77
2019-05-01T11:44:43.003Z,41.50
2019-05-01T11:47:20.312Z,43.83
2019-05-01T11:50:11.504Z,42.47
2019-05-01T11:52:52.380Z,41.93
2019-05-01T11:55:21.859Z,44.20
2019-05-01T11:57:57.970Z,43.97
2019-05-01T12:00:27.126Z,45.00
2019-05-01T12:03:01.068Z,42.93
2019-05-01T12:05:41.200Z,43.47
2019-05-01T12:08:12.736Z,40.87
2019-05-01T12:10:54.916Z,43.13
2019-05-01T12:13:28.712Z,44.03
2019-05-01T12:16:03.844Z,42.27
2019-05-01T12:18:39.950Z,41.07
2019-05-01T12:21:20.148Z,41.07
2019-05-01T12:23:54.194Z,40.77
2019-05-01T12:26:29.368Z,41.27
2019-05-01T12:29:06.458Z,40.13
2019-05-01T12:31:39.599Z,43.37
2019-05-01T12:34:13.631Z,40.23
2019-05-01T12:36:47.733Z,42.03
2019-05-01T12:39:21.516Z,40.17
2019-05-01T12:42:01.926Z,41.13
2019-05-01T12:44:33.142Z,42.70
2019-05-01T12:47:18.395Z,41.23
2019-05-01T12:49:51.500Z,38.83
2019-05-01T12:52:42.856Z,38.37
2019-05-01T12:55:26.857Z,39.60
2019-05-01T12:58:04.473Z,40.00
2019-05-01T13:00:52.684Z,39.23
2019-05-01T13:03:24.525Z,37.47
2019-05-01T13:06:01.234Z,39.80
2019-05-01T13:08:31.844Z,39.03
2019-05-01T13:11:03.108Z,38.83
2019-05-01T13:13:42.872Z,39.33
2019-05-01T13:16:13.873Z,38.17
2019-05-01T13:18:49.983Z,39.67
2019-05-01T13:21:20.538Z,38.40
2019-05-01T13:23:50.256Z,39.83
2019-05-01T13:26:40.222Z,40.27
2019-05-01T13:29:19.643Z,42.17
2019-05-01T13:31:50.239Z,38.97
2019-05-01T13:34:20.579Z,40.00
2019-05-01T13:37:03.250Z,38.90
2019-05-01T13:39:30.398Z,39.30
2019-05-01T13:41:59.336Z,38.73
2019-05-01T13:44:32.395Z,40.40
2019-05-01T13:47:05.732Z,39.30
2019-05-01T13:49:40.099Z,38.30
2019-05-01T13:52:19.655Z,40.20
2019-05-01T13:54:51.851Z,38.80
2019-05-01T13:57:22.262Z,39.47
2019-05-01T13:59:53.561Z,36.30
2019-05-01T14:02:24.115Z,38.37
2019-05-01T14:04:54.101Z,37.20
2019-05-01T14:07:31.055Z,36.73
2019-05-01T14:10:04.894Z,37.27
2019-05-01T14:12:37.105Z,38.97
2019-05-01T14:15:06.820Z,38.60
2019-05-01T14:17:36.182Z,39.80
2019-05-01T14:20:24.436Z,39.07
2019-05-01T14:23:02.154Z,39.70
2019-05-01T14:25:55.741Z,39.60
2019-05-01T14:28:28.213Z,38.77
2019-05-01T14:31:10.915Z,40.60
2019-05-01T14:33:41.503Z,39.37
2019-05-01T14:36:14.018Z,38.97
2019-05-01T14:38:54.372Z,38.63
2019-05-01T14:41:37.008Z,41.10
2019-05-01T14:44:36.043Z,38.40
2019-05-01T14:46:55.895Z,39.57
2019-05-01T14:49:29.640Z,40.20
2019-05-01T14:52:07.179Z,40.00
2019-05-01T14:54:50.057Z,40.50
2019-05-01T14:57:23.418Z,41.70
2019-05-01T14:59:55.331Z,37.10
2019-05-01T15:02:26.447Z,39.73
2019-05-01T15:04:56.865Z,39.00
2019-05-01T15:07:28.247Z,38.47
2019-05-01T15:09:57.671Z,39.30
2019-05-01T15:12:27.994Z,39.73
2019-05-01T15:15:21.730Z,39.20
2019-05-01T15:18:02.390Z,40.43
2019-05-01T15:20:35.331Z,39.17
2019-05-01T15:23:09.823Z,38.30
2019-05-01T15:25:45.637Z,37.87
2019-05-01T15:28:25.988Z,41.00
2019-05-01T15:30:59.731Z,39.03
2019-05-01T15:33:31.492Z,36.70
2019-05-01T15:36:03.347Z,37.63
2019-05-01T15:38:44.264Z,41.17
2019-05-01T15:41:35.717Z,38.63
2019-05-01T15:44:24.269Z,40.50
2019-05-01T15:47:06.201Z,39.13
2019-05-01T15:49:48.773Z,35.77
2019-05-01T15:52:29.395Z,37.43
2019-05-01T15:55:25.373Z,39.23
2019-05-01T15:58:00.688Z,36.70
2019-05-01T16:00:31.789Z,38.23
2019-05-01T16:03:03.545Z,33.73
2019-05-01T16:05:38.892Z,36.37
2019-05-01T16:08:10.530Z,35.67
2019-05-01T16:10:49.880Z,36.43
2019-05-01T16:13:23.379Z,36.33
2019-05-01T16:15:54.599Z,36.83
2019-05-01T16:18:25.591Z,36.57
2019-05-01T16:20:56.669Z,35.67
2019-05-01T16:23:28.365Z,37.10
2019-05-01T16:26:03.319Z,36.50
2019-05-01T16:28:34.179Z,36.87
2019-05-01T16:31:07.326Z,35.87
2019-05-01T16:33:38.958Z,36.63
2019-05-01T16:36:12.443Z,35.80
2019-05-01T16:38:55.572Z,36.73
2019-05-01T16:41:28.865Z,37.33
2019-05-01T16:43:59.857Z,35.83
2019-05-01T16:46:31.736Z,38.10
2019-05-01T16:49:07.469Z,37.77
2019-05-01T16:51:33.865Z,38.00
2019-05-01T16:54:05.665Z,37.57
2019-05-01T16:56:38.651Z,35.97
2019-05-01T16:59:10.466Z,38.17
2019-05-01T17:01:52.507Z,37.83
2019-05-01T17:04:24.376Z,36.70
2019-05-01T17:07:14.081Z,36.07
2019-05-01T17:09:47.959Z,37.63
2019-05-01T17:12:25.177Z,36.50
2019-05-01T17:15:00.249Z,35.63
2019-05-01T17:17:30.102Z,35.70
2019-05-01T17:20:06.416Z,34.73
2019-05-01T17:22:46.299Z,35.20
2019-05-01T17:25:20.690Z,34.47
2019-05-01T17:27:52.946Z,34.30
2019-05-01T17:30:42.710Z,35.10
2019-05-01T17:33:20.484Z,33.40
2019-05-01T17:35:52.666Z,33.40
2019-05-01T17:38:33.595Z,33.23
2019-05-01T17:41:12.743Z,32.77
2019-05-01T17:43:49.370Z,32.43
2019-05-01T17:46:20.164Z,33.50
2019-05-01T17:48:53.069Z,33.53
2019-05-01T17:51:22.021Z,33.00
2019-05-01T17:53:55.857Z,32.90
2019-05-01T17:56:28.552Z,33.17
2019-05-01T17:59:02.390Z,33.50
2019-05-01T18:01:56.060Z,32.97
2019-05-01T18:04:38.096Z,32.60
2019-05-01T18:07:10.007Z,32.33
2019-05-01T18:09:44.350Z,33.20
2019-05-01T18:12:17.923Z,34.67
2019-05-01T18:14:50.002Z,32.63
2019-05-01T18:17:19.882Z,32.50
2019-05-01T18:19:52.044Z,33.07
2019-05-01T18:22:32.130Z,32.53
2019-05-01T18:25:21.046Z,34.03
2019-05-01T18:28:07.809Z,31.57
2019-05-01T18:30:44.950Z,33.00
2019-05-01T18:33:22.076Z,32.00
2019-05-01T18:35:55.207Z,33.23
2019-05-01T18:38:47.575Z,32.87
2019-05-01T18:41:28.480Z,32.70
2019-05-01T18:44:09.965Z,30.93
2019-05-01T18:49:33.680Z,30.60
2019-05-01T18:52:06.791Z,31.30
2019-05-01T18:54:37.004Z,30.87
2019-05-01T18:57:10.720Z,31.53
2019-05-01T18:59:42.100Z,33.43
2019-05-01T19:02:20.627Z,32.63
2019-05-01T19:04:56.016Z,34.10
2019-05-01T19:07:31.727Z,30.27
2019-05-01T19:10:08.357Z,32.63
2019-05-01T19:12:49.431Z,31.10
2019-05-01T19:15:19.337Z,31.30
2019-05-01T19:17:59.647Z,31.67
2019-05-01T19:20:30.233Z,30.97
2019-05-01T19:23:04.833Z,31.00
2019-05-01T19:25:49.254Z,31.67
2019-05-01T19:28:19.158Z,30.10
2019-05-01T19:30:51.102Z,31.10
2019-05-01T19:33:23.367Z,31.23
2019-05-01T19:35:57.343Z,31.93
2019-05-01T19:41:43.612Z,31.70
2019-05-01T19:44:25.202Z,30.27
2019-05-01T19:47:24.465Z,30.20
2019-05-01T19:49:40.716Z,30.03
2019-05-01T19:52:13.242Z,30.23
2019-05-01T19:54:53.108Z,31.33
2019-05-01T19:57:23.488Z,30.17
2019-05-01T19:59:56.603Z,31.90
2019-05-01T20:02:39.886Z,29.07
2019-05-01T20:08:06.682Z,30.77
2019-05-01T20:11:12.646Z,30.37
2019-05-01T20:13:53.015Z,32.67
2019-05-01T20:16:23.800Z,31.90
2019-05-01T20:19:00.616Z,32.70
2019-05-01T20:21:36.161Z,30.90
2019-05-01T20:24:12.637Z,29.60
2019-05-01T20:26:42.372Z,29.37
2019-05-01T20:32:04.554Z,30.73
2019-05-01T20:34:37.987Z,30.40
2019-05-01T20:48:22.998Z,29.77
2019-05-01T20:50:52.556Z,31.33
2019-05-01T20:53:28.334Z,29.80
2019-05-01T20:56:06.930Z,28.83
2019-05-01T21:01:31.953Z,28.97
2019-05-01T21:04:23.168Z,30.17
2019-05-01T21:07:31.669Z,29.87
2019-05-01T21:10:25.010Z,28.00
2019-05-01T21:13:04.211Z,29.97
2019-05-01T21:15:47.065Z,29.47
2019-05-01T21:18:25.408Z,30.17
2019-05-01T21:20:54.025Z,29.90
2019-05-01T21:58:00.914Z,28.23
2019-05-01T22:00:36.760Z,28.83
2019-05-01T22:03:09.570Z,29.00
2019-05-01T22:05:42.369Z,27.97
2019-05-01T22:08:12.152Z,29.70
2019-05-01T22:10:51.733Z,28.80
2019-05-01T22:13:20.379Z,28.03
2019-05-01T22:18:52.187Z,28.80
2019-05-01T22:21:36.024Z,28.70
2019-05-01T22:24:25.836Z,28.37
2019-05-01T22:27:06.540Z,29.10
2019-05-01T22:29:58.274Z,28.20
2019-05-01T22:32:36.885Z,29.00
2019-05-01T22:35:13.175Z,27.60
2019-05-01T22:37:42.533Z,28.67
2019-05-01T22:40:19.613Z,27.70
2019-05-01T22:42:51.284Z,29.83
2019-05-01T22:45:31.766Z,27.90
2019-05-01T22:48:03.398Z,27.10
2019-05-01T22:50:32.260Z,28.90
2019-05-01T22:53:01.383Z,28.37
2019-05-01T22:55:32.562Z,29.93
2019-05-01T22:58:10.620Z,28.13
2019-05-01T23:14:06.830Z,27.43
2019-05-01T23:16:40.533Z,28.27
2019-05-01T23:19:12.908Z,28.27
2019-05-01T23:21:50.913Z,30.47
2019-05-01T23:24:23.705Z,28.00
2019-05-01T23:26:54.574Z,27.77
2019-05-01T23:29:54.183Z,29.37
2019-05-01T23:32:24.334Z,27.43
2019-05-01T23:35:02.096Z,29.43
2019-05-01T23:37:37.272Z,27.60
2019-05-01T23:40:20.169Z,27.83
2019-05-01T23:42:53.490Z,27.57
2019-05-01T23:45:21.363Z,27.77
2019-05-01T23:47:52.084Z,27.20
2019-05-01T23:50:22.099Z,29.50
2019-05-01T23:52:55.305Z,29.57
2019-05-01T23:55:24.847Z,30.10
2019-05-01T23:57:54.854Z,28.53
